Terminal Aerodrome Forecast
Issued by NWS

Home | Current Version | Previous Version | Text Only | Print | Product List | Glossary On
Versions: 1 2 3 4 5 6 7 8 9 10 11 12 13 14 15 16 17 18 19 20 21 22 23 24 25 26 27 28 29
000
FTUS42 KGSP 041724
TAFAND
TAF
KAND 041724Z 0418/0518 24013G21KT P6SM -SHRA SCT040 OVC080
     FM042300 24007KT P6SM FEW050 OVC100
     FM050900 23004KT P6SM VCSH SCT015 OVC060
     FM051500 23008KT P6SM VCSH SCT040 BKN070=

USA.gov is the U.S. government's official web portal to all federal, state and local government web resources and services.